Time;durP1;ratioP1;P1;durP2;ratioP2;P2;SDS_P1;SDS_P2;PMS_P1;PMS_P2;Temp;Humidity;BMP_temperature;BMP_pressure;BME280_temperature;BME280_humidity;BME280_pressure;Samples;Min_cycle;Max_cycle;Signal;HPM_P1;HPM_P2
2021/11/16 00:00:29;;;;;;;;;;;;;;;20.65;38.20;95951.44;1031769;28;852;-56
2021/11/16 00:01:01;;;;;;;;;;;;;;;20.63;38.28;95949.03;1026635;28;821;-59
2021/11/16 00:01:37;;;;;;;;;;;;;;;20.63;38.27;95954.31;1027969;28;802;-61
2021/11/16 00:02:09;;;;;;;;;;;;;;;20.63;38.33;95951.69;1027445;28;860;-58
2021/11/16 00:02:40;;;;;;;;;;;;;;;20.60;38.18;95946.97;1029165;28;920;-56
2021/11/16 00:03:11;;;;;;;;;;;;;;;20.62;38.40;95947.47;1032283;28;883;-59
2021/11/16 00:03:42;;;;;;;;;;;;;;;20.62;38.44;95949.31;1032008;28;817;-59
2021/11/16 00:04:13;;;;;;;;;;;;;;;20.62;38.70;95941.41;1031488;28;1245;-53
2021/11/16 00:04:46;;;;;;;;;;;;;;;20.60;38.43;95944.31;1027888;28;815;-59
2021/11/16 00:05:20;;;;;;;;;;;;;;;20.63;38.31;95951.69;1028192;28;1078;-56
2021/11/16 00:05:51;;;;;;;;;;;;;;;20.60;38.40;95949.59;1028025;28;893;-58
2021/11/16 00:06:27;;;;;;;;;;;;;;;20.62;38.59;95952.75;1025599;28;1193;-55
2021/11/16 00:06:58;;;;;;;;;;;;;;;20.60;38.23;95949.59;1028159;28;860;-54
2021/11/16 00:07:28;;;;;;;;;;;;;;;20.60;38.53;95949.59;1028292;28;821;-58
2021/11/16 00:07:59;;;;;;;;;;;;;;;20.59;38.53;95939.31;1028153;28;1007;-54
2021/11/16 00:08:30;;;;;;;;;;;;;;;20.62;38.24;95947.47;1032298;28;852;-54
2021/11/16 00:09:02;;;;;;;;;;;;;;;20.61;38.32;95943.25;1027841;28;876;-58
2021/11/16 00:09:33;;;;;;;;;;;;;;;20.61;38.32;95945.88;1027959;28;1102;-57
2021/11/16 00:10:04;;;;;;;;;;;;;;;20.60;38.35;95946.16;1028491;28;841;-57
2021/11/16 00:10:35;;;;;;;;;;;;;;;20.57;38.24;95944.84;1024033;28;916;-58
2021/11/16 00:11:06;;;;;;;;;;;;;;;20.58;38.48;95950.91;1028092;28;840;-55
2021/11/16 00:11:37;;;;;;;;;;;;;;;20.54;38.70;95950.66;1027898;28;943;-58
2021/11/16 00:12:08;;;;;;;;;;;;;;;20.57;38.45;95944.06;1028382;28;955;-55
2021/11/16 00:12:39;;;;;;;;;;;;;;;20.57;38.44;95944.84;1032400;28;1012;-57
2021/11/16 00:13:11;;;;;;;;;;;;;;;20.59;38.26;95945.38;1032466;28;792;-55
2021/11/16 00:13:42;;;;;;;;;;;;;;;20.59;38.02;95947.22;1032635;28;757;-55
2021/11/16 00:14:12;;;;;;;;;;;;;;;20.60;38.26;95943.53;1031875;28;1234;-59
2021/11/16 00:14:43;;;;;;;;;;;;;;;20.60;38.18;95949.59;1027361;28;1735;-59
2021/11/16 00:15:14;;;;;;;;;;;;;;;20.58;38.17;95945.66;1024375;29;879;-56
2021/11/16 00:15:45;;;;;;;;;;;;;;;20.60;38.26;95952.22;1023616;29;1016;-58
2021/11/16 00:16:17;;;;;;;;;;;;;;;20.58;38.16;95950.91;1019291;29;1001;-57
2021/11/16 00:16:47;;;;;;;;;;;;;;;20.57;38.01;95942.22;1024225;28;770;-58
2021/11/16 00:17:18;;;;;;;;;;;;;;;20.55;38.17;95949.59;1028077;28;1184;-59
2021/11/16 00:17:49;;;;;;;;;;;;;;;20.57;38.55;95950.13;1028406;28;1963;-59
2021/11/16 00:18:25;;;;;;;;;;;;;;;20.57;38.34;95955.38;1032148;28;871;-57
2021/11/16 00:19:01;;;;;;;;;;;;;;;20.57;38.23;95951.97;1032252;28;876;-57
2021/11/16 00:19:31;;;;;;;;;;;;;;;20.56;38.44;95953.81;1032147;28;772;-59
2021/11/16 00:20:04;;;;;;;;;;;;;;;20.56;38.41;95953.03;1032223;28;939;-59
2021/11/16 00:20:40;;;;;;;;;;;;;;;20.55;38.41;95948.81;1028372;28;880;-60
2021/11/16 00:21:13;;;;;;;;;;;;;;;20.55;38.34;95954.88;1023368;29;994;-57
2021/11/16 00:21:44;;;;;;;;;;;;;;;20.55;38.47;95948.81;1023918;29;1110;-58
2021/11/16 00:22:18;;;;;;;;;;;;;;;20.56;38.09;95945.13;1021444;29;782;-56
2021/11/16 00:22:56;;;;;;;;;;;;;;;20.54;38.10;95945.41;1025783;28;840;-59
2021/11/16 00:23:34;;;;;;;;;;;;;;;20.52;38.12;95947.53;1028088;28;765;-58
2021/11/16 00:24:11;;;;;;;;;;;;;;;20.54;38.18;95944.59;1026471;28;892;-60
2021/11/16 00:24:56;;;;;;;;;;;;;;;20.56;38.19;95945.91;1026905;28;871;-59
2021/11/16 00:25:36;;;;;;;;;;;;;;;20.54;38.00;95944.59;1027750;28;998;-58
2021/11/16 00:26:08;;;;;;;;;;;;;;;20.53;38.12;95941.19;1027886;28;828;-59
2021/11/16 00:26:39;;;;;;;;;;;;;;;20.54;38.07;95940.13;1028144;28;883;-59
2021/11/16 00:27:12;;;;;;;;;;;;;;;20.52;37.97;95942.25;1023936;29;741;-57
2021/11/16 00:27:43;;;;;;;;;;;;;;;20.52;38.06;95947.53;1019988;29;1470;-58
2021/11/16 00:28:14;;;;;;;;;;;;;;;20.52;38.17;95942.25;1019792;29;919;-59
2021/11/16 00:28:44;;;;;;;;;;;;;;;20.53;38.10;95943.00;1020012;29;864;-59
2021/11/16 00:29:16;;;;;;;;;;;;;;;20.52;38.01;95947.53;1023963;28;848;-59
2021/11/16 00:29:46;;;;;;;;;;;;;;;20.53;38.15;95943.00;1032341;28;1039;-58
2021/11/16 00:30:17;;;;;;;;;;;;;;;20.52;37.99;95944.88;1032219;28;1159;-59
2021/11/16 00:30:48;;;;;;;;;;;;;;;20.52;37.98;95949.34;1032301;28;972;-59
2021/11/16 00:31:19;;;;;;;;;;;;;;;20.49;37.91;95940.13;1026488;28;1889;-59
2021/11/16 00:31:50;;;;;;;;;;;;;;;20.50;38.06;95941.72;1027941;28;801;-57
2021/11/16 00:32:20;;;;;;;;;;;;;;;20.49;38.06;95942.78;1023500;29;1517;-58
2021/11/16 00:32:54;;;;;;;;;;;;;;;20.49;38.08;95948.03;1020248;29;758;-58
2021/11/16 00:33:27;;;;;;;;;;;;;;;20.51;38.09;95945.13;1023939;29;891;-60
2021/11/16 00:33:58;;;;;;;;;;;;;;;20.50;38.30;95944.38;1024853;28;948;-56
2021/11/16 00:34:28;;;;;;;;;;;;;;;20.50;38.07;95949.63;1027697;28;1431;-56
2021/11/16 00:34:59;;;;;;;;;;;;;;;20.49;38.10;95948.03;1032557;28;1011;-56
2021/11/16 00:35:30;;;;;;;;;;;;;;;20.50;38.08;95947.00;1031991;28;903;-56
2021/11/16 00:36:07;;;;;;;;;;;;;;;20.52;38.08;95946.72;1031175;28;885;-58
2021/11/16 00:36:41;;;;;;;;;;;;;;;20.49;38.07;95948.03;1028055;28;1016;-57
2021/11/16 00:37:12;;;;;;;;;;;;;;;20.48;38.03;95941.22;1028842;28;844;-58
2021/11/16 00:37:46;;;;;;;;;;;;;;;20.49;38.16;95947.25;1027602;28;1977;-57
2021/11/16 00:38:18;;;;;;;;;;;;;;;20.47;38.01;95939.63;1024201;29;792;-58
2021/11/16 00:38:49;;;;;;;;;;;;;;;20.47;38.18;95944.88;1024113;29;860;-57
2021/11/16 00:39:20;;;;;;;;;;;;;;;20.46;37.95;95945.16;1024791;28;818;-58
2021/11/16 00:39:52;;;;;;;;;;;;;;;20.46;38.17;95937.25;1028137;28;821;-55
2021/11/16 00:40:26;;;;;;;;;;;;;;;20.52;37.86;95946.72;1032166;28;934;-57
2021/11/16 00:40:56;;;;;;;;;;;;;;;20.51;37.90;95940.66;1032236;28;769;-58
2021/11/16 00:41:27;;;;;;;;;;;;;;;20.49;37.85;95939.34;1032309;28;944;-57
2021/11/16 00:41:58;;;;;;;;;;;;;;;20.48;37.88;95943.03;1032138;28;805;-56
2021/11/16 00:42:29;;;;;;;;;;;;;;;20.46;37.94;95940.69;1032141;28;879;-56
2021/11/16 00:42:59;;;;;;;;;;;;;;;20.48;38.12;95949.09;1032459;28;1014;-56
2021/11/16 00:43:32;;;;;;;;;;;;;;;20.43;38.30;95943.03;1028217;28;1228;-53
2021/11/16 00:44:11;;;;;;;;;;;;;;;20.44;38.08;95939.38;1023902;28;1217;-53
2021/11/16 00:44:43;;;;;;;;;;;;;;;20.46;37.87;95939.91;1023220;29;852;-53
2021/11/16 00:45:14;;;;;;;;;;;;;;;20.46;37.95;95940.69;1022008;29;846;-60
2021/11/16 00:45:47;;;;;;;;;;;;;;;20.47;37.92;95939.63;1028075;28;1144;-59
2021/11/16 00:46:19;;;;;;;;;;;;;;;20.49;37.98;95941.97;1027182;28;781;-57
2021/11/16 00:46:49;;;;;;;;;;;;;;;20.44;37.90;95942.81;1029273;28;899;-60
2021/11/16 00:47:20;;;;;;;;;;;;;;;20.46;37.79;95939.91;1025815;28;1355;-60
2021/11/16 00:47:51;;;;;;;;;;;;;;;20.46;37.91;95943.31;1029282;28;815;-60
2021/11/16 00:48:23;;;;;;;;;;;;;;;20.47;37.97;95944.09;1029139;28;1090;-60
2021/11/16 00:48:54;;;;;;;;;;;;;;;20.44;37.99;95940.16;1029047;28;845;-56
2021/11/16 00:49:27;;;;;;;;;;;;;;;20.43;38.08;95941.22;1033379;28;1059;-59
2021/11/16 00:50:01;;;;;;;;;;;;;;;20.42;38.12;95942.28;1033700;28;1001;-59
2021/11/16 00:50:38;;;;;;;;;;;;;;;20.43;38.18;95940.41;1033877;28;872;-60
2021/11/16 00:51:12;;;;;;;;;;;;;;;20.43;38.08;95938.56;1032705;28;899;-58
2021/11/16 00:51:43;;;;;;;;;;;;;;;20.43;38.08;95933.31;1028593;28;1374;-58
2021/11/16 00:52:17;;;;;;;;;;;;;;;20.42;37.91;95937.00;1028092;28;841;-60
2021/11/16 00:52:48;;;;;;;;;;;;;;;20.43;37.96;95933.31;1024798;29;1187;-58
2021/11/16 00:53:22;;;;;;;;;;;;;;;20.44;37.89;95934.91;1025458;28;1003;-55
2021/11/16 00:53:53;;;;;;;;;;;;;;;20.42;38.02;95931.75;1024530;29;912;-57
2021/11/16 00:54:24;;;;;;;;;;;;;;;20.40;38.12;95939.13;1024636;28;1234;-58
2021/11/16 00:54:58;;;;;;;;;;;;;;;20.41;37.91;95935.44;1028777;28;1068;-58
2021/11/16 00:55:29;;;;;;;;;;;;;;;20.40;38.24;95935.69;1028469;28;1062;-58
2021/11/16 00:56:00;;;;;;;;;;;;;;;20.41;38.13;95942.53;1024425;28;1264;-56
2021/11/16 00:57:11;;;;;;;;;;;;;;;20.41;38.12;95938.06;1024893;29;868;-58
2021/11/16 00:57:42;;;;;;;;;;;;;;;20.41;38.06;95932.78;1025976;28;1899;-59
2021/11/16 00:58:12;;;;;;;;;;;;;;;20.40;38.14;95939.13;1030209;28;896;-58
2021/11/16 00:58:43;;;;;;;;;;;;;;;20.37;38.25;95937.00;1033068;28;800;-54
2021/11/16 00:59:14;;;;;;;;;;;;;;;20.36;38.30;95942.56;1028699;28;1426;-59
2021/11/16 00:59:45;;;;;;;;;;;;;;;20.36;38.30;95940.69;1028660;28;819;-58
2021/11/16 01:00:16;;;;;;;;;;;;;;;20.37;38.12;95944.91;1028801;28;863;-59
2021/11/16 01:00:46;;;;;;;;;;;;;;;20.35;38.34;95944.41;1024082;28;1003;-59
2021/11/16 01:01:17;;;;;;;;;;;;;;;20.36;38.07;95942.56;1027434;28;813;-56
2021/11/16 01:01:48;;;;;;;;;;;;;;;20.34;38.18;95940.16;1028835;28;852;-58
2021/11/16 01:02:18;;;;;;;;;;;;;;;20.35;38.14;95944.41;1028404;28;832;-59
2021/11/16 01:02:49;;;;;;;;;;;;;;;20.34;38.31;95945.44;1033186;28;845;-58
2021/11/16 01:03:25;;;;;;;;;;;;;;;20.35;38.20;95941.75;1033231;28;868;-57
2021/11/16 01:04:02;;;;;;;;;;;;;;;20.34;38.25;95942.81;1033079;28;813;-58
2021/11/16 01:04:32;;;;;;;;;;;;;;;20.31;38.23;95935.47;1032196;28;1143;-57
2021/11/16 01:05:04;;;;;;;;;;;;;;;20.33;38.40;95943.06;1028305;28;1767;-56
2021/11/16 01:05:37;;;;;;;;;;;;;;;20.31;38.47;95945.19;1020543;29;1392;-58
2021/11/16 01:06:08;;;;;;;;;;;;;;;20.31;38.50;95945.19;1020154;29;781;-59
2021/11/16 01:06:39;;;;;;;;;;;;;;;20.31;38.33;95940.72;1021304;29;1005;-59
2021/11/16 01:07:17;;;;;;;;;;;;;;;20.30;38.46;95941.00;1022052;29;876;-59
2021/11/16 01:07:47;;;;;;;;;;;;;;;20.34;38.24;95949.94;1025995;28;1245;-57
2021/11/16 01:08:27;;;;;;;;;;;;;;;20.34;38.18;95940.16;1028818;28;1163;-58
2021/11/16 01:08:58;;;;;;;;;;;;;;;20.31;38.43;95940.72;1026624;28;832;-59
2021/11/16 01:09:29;;;;;;;;;;;;;;;20.33;38.37;95943.88;1028677;28;911;-58
2021/11/16 01:09:59;;;;;;;;;;;;;;;20.36;38.16;95942.56;1024702;29;1780;-58
2021/11/16 01:10:30;;;;;;;;;;;;;;;20.34;38.10;95945.44;1024878;28;805;-59
2021/11/16 01:11:01;;;;;;;;;;;;;;;20.35;38.22;95946.22;1027759;28;568;-59
2021/11/16 01:11:32;;;;;;;;;;;;;;;20.33;38.07;95943.88;1024860;28;880;-58
2021/11/16 01:12:04;;;;;;;;;;;;;;;20.33;38.35;95943.06;1024707;29;1140;-57
2021/11/16 01:12:34;;;;;;;;;;;;;;;20.32;38.36;95941.50;1020295;29;1126;-57
2021/11/16 01:13:05;;;;;;;;;;;;;;;20.32;38.30;95938.88;1021008;29;828;-57
2021/11/16 01:13:37;;;;;;;;;;;;;;;20.32;38.23;95942.28;1025032;28;931;-58
2021/11/16 01:14:08;;;;;;;;;;;;;;;20.30;38.39;95938.38;1029005;28;1320;-58
2021/11/16 01:14:39;;;;;;;;;;;;;;;20.30;38.27;95938.38;1032541;28;820;-58
2021/11/16 01:15:10;;;;;;;;;;;;;;;20.31;38.19;95935.47;1028351;28;1146;-58
2021/11/16 01:15:41;;;;;;;;;;;;;;;20.31;38.22;95937.28;1028477;28;821;-58
2021/11/16 01:16:14;;;;;;;;;;;;;;;20.29;38.29;95940.19;1027087;28;916;-58
2021/11/16 01:16:48;;;;;;;;;;;;;;;20.27;38.26;95935.22;1029390;28;1043;-57
2021/11/16 01:17:19;;;;;;;;;;;;;;;20.28;38.18;95935.97;1032872;28;832;-57
2021/11/16 01:17:50;;;;;;;;;;;;;;;20.30;38.12;95938.38;1032899;28;1910;-57
2021/11/16 01:18:21;;;;;;;;;;;;;;;20.27;38.25;95939.69;1032912;28;801;-58
2021/11/16 01:18:52;;;;;;;;;;;;;;;20.27;38.41;95935.22;1028754;28;921;-58
2021/11/16 01:19:29;;;;;;;;;;;;;;;20.28;38.29;95935.97;1028307;28;735;-59
2021/11/16 01:20:00;;;;;;;;;;;;;;;20.30;38.19;95936.50;1028352;28;848;-57
2021/11/16 01:20:31;;;;;;;;;;;;;;;20.31;38.17;95935.47;1029725;28;1118;-55
2021/11/16 01:21:02;;;;;;;;;;;;;;;20.31;38.17;95937.28;1023923;29;1517;-61
2021/11/16 01:21:36;;;;;;;;;;;;;;;20.29;38.16;95937.56;1023875;28;1091;-58
2021/11/16 01:22:07;;;;;;;;;;;;;;;20.30;38.06;95935.72;1024339;29;1256;-58
2021/11/16 01:22:40;;;;;;;;;;;;;;;20.30;38.26;95946.25;1026746;28;1243;-57
2021/11/16 01:23:14;;;;;;;;;;;;;;;20.30;38.24;95939.13;1033053;28;840;-59
2021/11/16 01:23:46;;;;;;;;;;;;;;;20.28;38.41;95944.66;1028496;28;844;-58
2021/11/16 01:24:17;;;;;;;;;;;;;;;20.27;38.21;95953.63;1028131;28;1233;-60
2021/11/16 01:24:48;;;;;;;;;;;;;;;20.27;38.31;95945.72;1028434;28;789;-57
2021/11/16 01:25:21;;;;;;;;;;;;;;;20.28;38.08;95946.50;1029556;28;1031;-56
2021/11/16 01:25:52;;;;;;;;;;;;;;;20.30;38.08;95938.38;1024089;28;1369;-59
2021/11/16 01:26:23;;;;;;;;;;;;;;;20.33;37.95;95945.72;1024706;29;1055;-57
2021/11/16 01:26:54;;;;;;;;;;;;;;;20.31;38.15;95945.97;1024689;29;861;-59
2021/11/16 01:27:33;;;;;;;;;;;;;;;20.30;38.01;95947.03;1025345;28;1115;-59
2021/11/16 01:28:13;;;;;;;;;;;;;;;20.27;38.24;95952.84;1032715;28;777;-60
2021/11/16 01:28:44;;;;;;;;;;;;;;;20.25;38.26;95950.47;1024596;29;1329;-60
2021/11/16 01:29:18;;;;;;;;;;;;;;;20.27;37.98;95948.38;1025896;28;1111;-59
2021/11/16 01:29:50;;;;;;;;;;;;;;;20.27;38.29;95958.09;1024175;28;895;-59
2021/11/16 01:30:22;;;;;;;;;;;;;;;20.26;38.19;95957.31;1025421;28;1528;-60
2021/11/16 01:30:55;;;;;;;;;;;;;;;20.28;38.17;95947.31;1023976;28;826;-58
2021/11/16 01:31:27;;;;;;;;;;;;;;;20.26;38.06;95952.03;1022873;29;853;-59
2021/11/16 01:31:58;;;;;;;;;;;;;;;20.29;38.23;95950.72;1021604;29;1027;-59
2021/11/16 01:32:35;;;;;;;;;;;;;;;20.30;38.26;95949.66;1024309;29;830;-60
2021/11/16 01:33:12;;;;;;;;;;;;;;;20.33;38.04;95943.88;1026356;28;817;-60
2021/11/16 01:33:45;;;;;;;;;;;;;;;20.34;38.15;95939.41;1030445;28;927;-59
2021/11/16 01:34:23;;;;;;;;;;;;;;;20.30;37.97;95939.13;1031694;28;1225;-59
2021/11/16 01:34:53;;;;;;;;;;;;;;;20.31;37.96;95943.34;1032746;28;872;-59
2021/11/16 01:35:24;;;;;;;;;;;;;;;20.30;38.12;95938.38;1024157;29;1261;-59
2021/11/16 01:35:55;;;;;;;;;;;;;;;20.29;37.89;95937.56;1023778;29;750;-58
2021/11/16 01:36:26;;;;;;;;;;;;;;;20.31;37.75;95940.72;1024341;29;817;-60
2021/11/16 01:36:57;;;;;;;;;;;;;;;20.33;37.99;95938.59;1024999;28;831;-56
2021/11/16 01:37:28;;;;;;;;;;;;;;;20.32;37.89;95946.78;1024377;29;1261;-57
2021/11/16 01:37:59;;;;;;;;;;;;;;;20.32;37.99;95944.91;1024324;29;1906;-56
2021/11/16 01:38:32;;;;;;;;;;;;;;;20.31;37.81;95945.97;1024636;29;876;-59
2021/11/16 01:39:03;;;;;;;;;;;;;;;20.31;38.01;95950.44;1025301;28;860;-60
2021/11/16 01:39:34;;;;;;;;;;;;;;;20.36;37.76;95953.84;1024353;29;1427;-60
2021/11/16 01:40:08;;;;;;;;;;;;;;;20.33;38.03;95951.78;1024615;29;778;-60
2021/11/16 01:40:40;;;;;;;;;;;;;;;20.35;37.92;95951.50;1021415;29;1428;-57
2021/11/16 01:41:13;;;;;;;;;;;;;;;20.34;37.88;95955.19;1025164;28;825;-56
2021/11/16 01:41:44;;;;;;;;;;;;;;;20.36;37.83;95945.19;1023856;29;1368;-59
2021/11/16 01:42:14;;;;;;;;;;;;;;;20.33;37.87;95943.88;1024933;28;1159;-58
2021/11/16 01:42:46;;;;;;;;;;;;;;;20.33;37.86;95943.88;1024405;29;778;-57
2021/11/16 01:43:19;;;;;;;;;;;;;;;20.34;37.86;95939.41;1020822;29;821;-59
2021/11/16 01:43:49;;;;;;;;;;;;;;;20.31;38.11;95935.47;1024564;29;837;-58
2021/11/16 01:44:20;;;;;;;;;;;;;;;20.32;37.94;95929.13;1024724;28;1336;-60
2021/11/16 01:44:51;;;;;;;;;;;;;;;20.33;37.86;95933.34;1029032;28;865;-59
2021/11/16 01:45:22;;;;;;;;;;;;;;;20.33;38.04;95935.19;1032993;28;859;-57
2021/11/16 01:45:58;;;;;;;;;;;;;;;20.31;38.02;95934.66;1032088;28;812;-59
2021/11/16 01:46:29;;;;;;;;;;;;;;;20.29;38.00;95932.31;1032444;28;816;-67
2021/11/16 01:47:00;;;;;;;;;;;;;;;20.28;38.12;95935.97;1032741;28;896;-58
2021/11/16 01:47:31;;;;;;;;;;;;;;;20.29;38.10;95940.19;1032885;28;856;-57
2021/11/16 01:48:02;;;;;;;;;;;;;;;20.30;37.84;95944.41;1028449;28;1339;-58
2021/11/16 01:48:36;;;;;;;;;;;;;;;20.30;38.02;95943.63;1028377;28;1207;-58
2021/11/16 01:49:10;;;;;;;;;;;;;;;20.30;37.80;95943.63;1028650;28;915;-60
2021/11/16 01:49:41;;;;;;;;;;;;;;;20.29;37.88;95942.81;1028317;28;841;-58
2021/11/16 01:50:12;;;;;;;;;;;;;;;20.31;37.95;95945.97;1029934;28;963;-60
2021/11/16 01:50:44;;;;;;;;;;;;;;;20.33;37.94;95943.88;1028108;28;1107;-58
2021/11/16 01:51:16;;;;;;;;;;;;;;;20.32;37.93;95942.28;1028450;28;884;-57
2021/11/16 01:51:49;;;;;;;;;;;;;;;20.32;38.09;95936.25;1027708;28;864;-57
2021/11/16 01:52:22;;;;;;;;;;;;;;;20.33;37.87;95930.72;1029142;28;837;-59
2021/11/16 01:52:53;;;;;;;;;;;;;;;20.33;37.82;95935.19;1032962;28;813;-60
2021/11/16 01:53:23;;;;;;;;;;;;;;;20.34;37.96;95932.28;1033005;28;836;-60
2021/11/16 01:54:01;;;;;;;;;;;;;;;20.34;37.95;95932.28;1032674;28;1169;-59
2021/11/16 01:54:38;;;;;;;;;;;;;;;20.36;37.78;95934.66;1028158;28;1281;-58
2021/11/16 01:55:12;;;;;;;;;;;;;;;20.32;38.17;95929.13;1024558;29;1304;-60
2021/11/16 01:55:43;;;;;;;;;;;;;;;20.36;37.98;95935.44;1024411;29;831;-57
2021/11/16 01:56:17;;;;;;;;;;;;;;;20.36;37.98;95939.94;1026367;28;865;-59
2021/11/16 01:56:47;;;;;;;;;;;;;;;20.35;38.05;95941.75;1029055;28;999;-63
2021/11/16 01:57:18;;;;;;;;;;;;;;;20.36;37.69;95939.94;1032560;28;915;-61
2021/11/16 01:57:49;;;;;;;;;;;;;;;20.35;37.86;95941.75;1032901;28;1911;-59
2021/11/16 01:58:19;;;;;;;;;;;;;;;20.37;37.84;95944.13;1028285;28;872;-58
2021/11/16 01:58:50;;;;;;;;;;;;;;;20.35;38.16;95944.41;1028609;28;849;-60
2021/11/16 01:59:22;;;;;;;;;;;;;;;20.33;38.00;95943.88;1028664;28;896;-59
2021/11/16 01:59:55;;;;;;;;;;;;;;;20.35;38.02;95943.59;1025094;28;1189;-59
2021/11/16 02:00:27;;;;;;;;;;;;;;;20.35;37.90;95941.75;1023991;28;1488;-60
2021/11/16 02:00:58;;;;;;;;;;;;;;;20.35;38.13;95941.75;1019147;29;790;-59
2021/11/16 02:01:29;;;;;;;;;;;;;;;20.34;38.12;95948.06;1020461;29;940;-57
2021/11/16 02:02:03;;;;;;;;;;;;;;;20.37;37.78;95944.13;1020287;29;896;-59
2021/11/16 02:02:33;;;;;;;;;;;;;;;20.36;37.92;95943.31;1023675;28;805;-58
2021/11/16 02:03:04;;;;;;;;;;;;;;;20.38;37.79;95948.34;1026769;28;865;-59
2021/11/16 02:03:35;;;;;;;;;;;;;;;20.37;37.85;95941.50;1028821;28;857;-59
2021/11/16 02:04:06;;;;;;;;;;;;;;;20.37;37.75;95944.13;1028411;28;768;-58
2021/11/16 02:04:37;;;;;;;;;;;;;;;20.38;37.93;95943.84;1027699;28;1304;-58
2021/11/16 02:05:08;;;;;;;;;;;;;;;20.38;37.76;95951.75;1024580;29;844;-59
2021/11/16 02:05:44;;;;;;;;;;;;;;;20.36;37.92;95943.31;1024776;28;707;-58
2021/11/16 02:06:19;;;;;;;;;;;;;;;20.36;37.70;95953.09;1027982;28;832;-59
2021/11/16 02:06:56;;;;;;;;;;;;;;;20.36;38.01;95945.97;1030929;28;820;-59
2021/11/16 02:07:28;;;;;;;;;;;;;;;20.38;37.80;95945.72;1032740;28;827;-58
2021/11/16 02:08:19;;;;;;;;;;;;;;;20.38;37.65;95943.84;1032322;28;835;-59
2021/11/16 02:09:11;;;;;;;;;;;;;;;20.36;37.80;95943.31;1032816;28;893;-60
2021/11/16 02:10:02;;;;;;;;;;;;;;;20.37;37.97;95934.38;1032854;28;852;-60
2021/11/16 02:10:54;;;;;;;;;;;;;;;20.38;37.97;95929.91;1031772;28;1025;-59
2021/11/16 02:11:24;;;;;;;;;;;;;;;20.39;37.98;95931.47;1028488;28;1297;-60
2021/11/16 02:11:55;;;;;;;;;;;;;;;20.36;38.05;95932.78;1028349;28;824;-60
2021/11/16 02:12:25;;;;;;;;;;;;;;;20.38;37.75;95941.22;1028303;28;799;-58
2021/11/16 02:13:20;;;;;;;;;;;;;;;20.39;37.82;95932.28;1025699;28;1095;-59
2021/11/16 02:14:12;;;;;;;;;;;;;;;20.35;38.13;95931.22;1028412;28;1241;-59
2021/11/16 02:15:00;;;;;;;;;;;;;;;20.37;37.83;95923.84;1028359;28;1269;-57
2021/11/16 02:15:31;;;;;;;;;;;;;;;20.38;37.97;95925.41;1024514;29;809;-58
2021/11/16 02:16:03;;;;;;;;;;;;;;;20.37;38.04;95921.22;1023227;29;857;-58
2021/11/16 02:16:53;;;;;;;;;;;;;;;20.38;37.94;95925.41;1025936;28;1056;-59
2021/11/16 02:17:45;;;;;;;;;;;;;;;20.36;37.98;95930.16;1032538;28;1977;-59
2021/11/16 02:18:20;;;;;;;;;;;;;;;20.36;37.84;95935.44;1027827;28;1235;-58
2021/11/16 02:19:10;;;;;;;;;;;;;;;20.35;37.93;95925.16;1028246;28;832;-60
2021/11/16 02:20:01;;;;;;;;;;;;;;;20.35;37.93;95931.22;1025230;28;1539;-61
2021/11/16 02:20:31;;;;;;;;;;;;;;;20.35;38.02;95935.69;1024258;29;1283;-59
2021/11/16 02:21:03;;;;;;;;;;;;;;;20.36;38.07;95932.78;1023892;29;1094;-59
2021/11/16 02:21:54;;;;;;;;;;;;;;;20.35;38.08;95935.69;1026082;28;1237;-56
2021/11/16 02:22:44;;;;;;;;;;;;;;;20.34;37.79;95934.91;1028177;28;1880;-58
2021/11/16 02:23:15;;;;;;;;;;;;;;;20.34;37.79;95934.91;1032032;28;883;-58
2021/11/16 02:24:06;;;;;;;;;;;;;;;20.37;37.85;95934.38;1030184;28;1047;-57
2021/11/16 02:24:56;;;;;;;;;;;;;;;20.37;37.83;95931.75;1028387;28;874;-59
2021/11/16 02:25:29;;;;;;;;;;;;;;;20.36;38.05;95932.78;1024253;29;1600;-58
2021/11/16 02:26:00;;;;;;;;;;;;;;;20.38;37.97;95935.19;1024061;29;1446;-60
2021/11/16 02:26:33;;;;;;;;;;;;;;;20.36;38.05;95927.53;1021462;29;793;-60
2021/11/16 02:27:24;;;;;;;;;;;;;;;20.37;37.80;95936.22;1027411;28;1143;-60
2021/11/16 02:28:14;;;;;;;;;;;;;;;20.34;38.01;95934.91;1028575;28;1127;-60
2021/11/16 02:29:05;;;;;;;;;;;;;;;20.36;37.92;95935.44;1028944;28;1230;-61
2021/11/16 02:29:35;;;;;;;;;;;;;;;20.36;37.94;95938.06;1028821;28;795;-58
2021/11/16 02:30:06;;;;;;;;;;;;;;;20.35;38.22;95933.06;1024973;29;1430;-60
2021/11/16 02:30:57;;;;;;;;;;;;;;;20.35;37.87;95927.81;1025683;28;1214;-60
2021/11/16 02:31:56;;;;;;;;;;;;;;;20.35;37.98;95928.59;1025477;28;1033;-57
2021/11/16 02:32:47;;;;;;;;;;;;;;;20.39;37.92;95929.63;1024447;29;1072;-59
2021/11/16 02:33:18;;;;;;;;;;;;;;;20.38;37.83;95930.69;1026522;28;797;-59
2021/11/16 02:33:49;;;;;;;;;;;;;;;20.38;37.84;95929.91;1028199;28;758;-59
2021/11/16 02:34:20;;;;;;;;;;;;;;;20.40;37.96;95931.22;1030910;28;1620;-58
2021/11/16 02:35:10;;;;;;;;;;;;;;;20.38;37.70;95929.91;1032414;28;810;-59
2021/11/16 02:36:00;;;;;;;;;;;;;;;20.37;37.85;95929.13;1032093;28;748;-59
2021/11/16 02:36:46;;;;;;;;;;;;;;;20.36;38.09;95930.16;1028220;28;1010;-61
2021/11/16 02:37:16;;;;;;;;;;;;;;;20.37;37.71;95931.75;1028567;28;864;-59
2021/11/16 02:38:07;;;;;;;;;;;;;;;20.35;37.94;95933.88;1025465;28;1910;-57
2021/11/16 02:38:58;;;;;;;;;;;;;;;20.35;38.13;95933.88;1029987;28;1443;-59
2021/11/16 02:39:29;;;;;;;;;;;;;;;20.37;37.86;95934.38;1032593;28;1129;-59
2021/11/16 02:40:19;;;;;;;;;;;;;;;20.36;37.96;95932.78;1030236;28;1249;-59
2021/11/16 02:40:53;;;;;;;;;;;;;;;20.37;38.09;95928.31;1028046;28;1187;-58
2021/11/16 02:41:31;;;;;;;;;;;;;;;20.38;37.93;95930.69;1024238;29;1076;-57
2021/11/16 02:42:21;;;;;;;;;;;;;;;20.38;38.04;95933.31;1021928;29;1285;-59
2021/11/16 02:43:12;;;;;;;;;;;;;;;20.35;38.02;95925.97;1027742;28;1118;-58
2021/11/16 02:43:59;;;;;;;;;;;;;;;20.39;37.75;95926.22;1032349;28;848;-60
2021/11/16 02:44:31;;;;;;;;;;;;;;;20.38;38.08;95927.28;1027468;28;1344;-57
2021/11/16 02:45:04;;;;;;;;;;;;;;;20.39;37.96;95926.22;1028379;28;948;-59
2021/11/16 02:45:37;;;;;;;;;;;;;;;20.40;37.78;95931.22;1020189;29;1193;-57
2021/11/16 02:46:27;;;;;;;;;;;;;;;20.39;38.04;95929.63;1021288;29;1217;-61
2021/11/16 02:47:18;;;;;;;;;;;;;;;20.40;37.91;95927.81;1025741;28;1153;-58
2021/11/16 02:47:49;;;;;;;;;;;;;;;20.43;37.69;95937.78;1029827;28;804;-58
2021/11/16 02:48:21;;;;;;;;;;;;;;;20.43;37.88;95932.50;1023431;29;1123;-59
2021/11/16 02:48:51;;;;;;;;;;;;;;;20.41;37.89;95938.06;1024369;29;846;-58
2021/11/16 02:49:22;;;;;;;;;;;;;;;20.41;37.87;95932.00;1024313;29;815;-60
2021/11/16 02:49:53;;;;;;;;;;;;;;;20.40;37.96;95936.50;1024379;28;848;-57
2021/11/16 02:50:24;;;;;;;;;;;;;;;20.39;37.79;95932.28;1027813;28;801;-59
2021/11/16 02:50:55;;;;;;;;;;;;;;;20.38;37.91;95930.69;1028450;28;872;-58
2021/11/16 02:51:26;;;;;;;;;;;;;;;20.40;37.84;95931.22;1032582;28;864;-58
2021/11/16 02:51:56;;;;;;;;;;;;;;;20.39;37.91;95936.75;1032641;28;824;-58
2021/11/16 02:52:26;;;;;;;;;;;;;;;20.37;37.93;95936.22;1031905;28;888;-59
2021/11/16 02:52:57;;;;;;;;;;;;;;;20.39;37.68;95932.28;1032617;28;793;-58
2021/11/16 02:53:27;;;;;;;;;;;;;;;20.38;37.69;95933.31;1032206;28;962;-58
2021/11/16 02:53:58;;;;;;;;;;;;;;;20.41;37.88;95929.38;1028361;28;855;-60
2021/11/16 02:54:29;;;;;;;;;;;;;;;20.42;37.52;95936.22;1027392;28;1234;-59
2021/11/16 02:54:59;;;;;;;;;;;;;;;20.42;37.67;95936.22;1028407;28;938;-58
2021/11/16 02:55:30;;;;;;;;;;;;;;;20.41;37.75;95932.78;1028497;28;812;-57
2021/11/16 02:56:00;;;;;;;;;;;;;;;20.42;37.70;95931.75;1031739;28;867;-58
2021/11/16 02:56:32;;;;;;;;;;;;;;;20.42;37.65;95937.00;1032077;28;978;-59
2021/11/16 02:57:11;;;;;;;;;;;;;;;20.41;37.60;95938.06;1032728;28;733;-58
2021/11/16 02:57:42;;;;;;;;;;;;;;;20.42;37.79;95942.28;1028031;28;1915;-59
2021/11/16 02:58:13;;;;;;;;;;;;;;;20.42;37.88;95944.91;1027730;28;848;-59
2021/11/16 02:58:43;;;;;;;;;;;;;;;20.40;37.68;95944.41;1023982;29;1245;-59
2021/11/16 02:59:14;;;;;;;;;;;;;;;20.38;37.81;95943.84;1024443;29;841;-59
2021/11/16 02:59:45;;;;;;;;;;;;;;;20.43;37.71;95943.84;1024212;29;899;-61
2021/11/16 03:00:16;;;;;;;;;;;;;;;20.41;37.70;95939.91;1024655;28;856;-60
2021/11/16 03:00:50;;;;;;;;;;;;;;;20.41;37.87;95951.22;1032205;28;955;-58
2021/11/16 03:01:20;;;;;;;;;;;;;;;20.40;37.91;95943.59;1031526;28;813;-59